sensor_id;sensor_type;location;lat;lon;timestamp;pressure;altitude;pressure_sealevel;temperature
61977;BMP280;45905;50.570;10.428;2023-10-08T00:01:10;98400.41;;;15.26
61977;BMP280;45905;50.570;10.428;2023-10-08T00:03:46;98391.97;;;15.26
61977;BMP280;45905;50.570;10.428;2023-10-08T00:06:21;98409.84;;;15.26
61977;BMP280;45905;50.570;10.428;2023-10-08T00:08:50;98419.06;;;15.27
61977;BMP280;45905;50.570;10.428;2023-10-08T00:11:18;98417.94;;;15.29
61977;BMP280;45905;50.570;10.428;2023-10-08T00:13:45;98417.94;;;15.29
61977;BMP280;45905;50.570;10.428;2023-10-08T00:16:16;98415.22;;;15.30
61977;BMP280;45905;50.570;10.428;2023-10-08T00:18:45;98424.66;;;15.30
61977;BMP280;45905;50.570;10.428;2023-10-08T00:21:21;98421.94;;;15.31
61977;BMP280;45905;50.570;10.428;2023-10-08T00:23:56;98417.00;;;15.30
61977;BMP280;45905;50.570;10.428;2023-10-08T00:26:28;98411.25;;;15.28
61977;BMP280;45905;50.570;10.428;2023-10-08T00:29:03;98410.47;;;15.27
61977;BMP280;45905;50.570;10.428;2023-10-08T00:31:34;98410.63;;;15.26
61977;BMP280;45905;50.570;10.428;2023-10-08T00:34:05;98410.38;;;15.21
61977;BMP280;45905;50.570;10.428;2023-10-08T00:36:35;98409.56;;;15.21
61977;BMP280;45905;50.570;10.428;2023-10-08T00:39:04;98404.63;;;15.19
61977;BMP280;45905;50.570;10.428;2023-10-08T00:41:44;98404.00;;;15.17
61977;BMP280;45905;50.570;10.428;2023-10-08T00:44:14;98411.03;;;15.15
61977;BMP280;45905;50.570;10.428;2023-10-08T00:46:50;98400.81;;;15.15
61977;BMP280;45905;50.570;10.428;2023-10-08T00:49:23;98399.22;;;15.14
61977;BMP280;45905;50.570;10.428;2023-10-08T00:52:12;98392.56;;;15.13
61977;BMP280;45905;50.570;10.428;2023-10-08T00:54:42;98391.94;;;15.11
61977;BMP280;45905;50.570;10.428;2023-10-08T00:57:19;98403.09;;;15.10
61977;BMP280;45905;50.570;10.428;2023-10-08T00:59:49;98404.06;;;15.09
61977;BMP280;45905;50.570;10.428;2023-10-08T01:02:29;98406.44;;;15.11
61977;BMP280;45905;50.570;10.428;2023-10-08T01:05:11;98386.53;;;15.07
61977;BMP280;45905;50.570;10.428;2023-10-08T01:07:43;98393.22;;;15.07
61977;BMP280;45905;50.570;10.428;2023-10-08T01:10:16;98395.94;;;15.06
61977;BMP280;45905;50.570;10.428;2023-10-08T01:12:48;98407.13;;;15.05
61977;BMP280;45905;50.570;10.428;2023-10-08T01:15:26;98400.94;;;15.00
61977;BMP280;45905;50.570;10.428;2023-10-08T01:17:57;98412.75;;;15.01
61977;BMP280;45905;50.570;10.428;2023-10-08T01:20:28;98417.84;;;15.01
61977;BMP280;45905;50.570;10.428;2023-10-08T01:23:10;98417.22;;;14.99
61977;BMP280;45905;50.570;10.428;2023-10-08T01:25:41;98418.97;;;14.98
61977;BMP280;45905;50.570;10.428;2023-10-08T01:28:10;98415.97;;;14.95
61977;BMP280;45905;50.570;10.428;2023-10-08T01:31:03;98421.88;;;14.95
61977;BMP280;45905;50.570;10.428;2023-10-08T01:33:35;98426.81;;;14.97
61977;BMP280;45905;50.570;10.428;2023-10-08T01:36:05;98423.75;;;14.93
61977;BMP280;45905;50.570;10.428;2023-10-08T01:38:35;98422.84;;;14.94
61977;BMP280;45905;50.570;10.428;2023-10-08T01:41:02;98417.88;;;14.93
61977;BMP280;45905;50.570;10.428;2023-10-08T01:43:30;98422.97;;;14.93
61977;BMP280;45905;50.570;10.428;2023-10-08T01:45:57;98408.16;;;14.88
61977;BMP280;45905;50.570;10.428;2023-10-08T01:48:25;98414.06;;;14.89
61977;BMP280;45905;50.570;10.428;2023-10-08T01:50:58;98421.09;;;14.87
61977;BMP280;45905;50.570;10.428;2023-10-08T01:53:28;98415.81;;;14.88
61977;BMP280;45905;50.570;10.428;2023-10-08T01:55:55;98408.34;;;14.87
61977;BMP280;45905;50.570;10.428;2023-10-08T01:58:23;98412.50;;;14.88
61977;BMP280;45905;50.570;10.428;2023-10-08T02:00:51;98421.09;;;14.87
61977;BMP280;45905;50.570;10.428;2023-10-08T02:03:19;98416.16;;;14.86
61977;BMP280;45905;50.570;10.428;2023-10-08T02:05:47;98422.69;;;14.88
61977;BMP280;45905;50.570;10.428;2023-10-08T02:08:15;98437.22;;;14.88
61977;BMP280;45905;50.570;10.428;2023-10-08T02:10:44;98436.06;;;14.90
61977;BMP280;45905;50.570;10.428;2023-10-08T02:13:14;98427.59;;;14.89
61977;BMP280;45905;50.570;10.428;2023-10-08T02:15:50;98430.00;;;14.91
61977;BMP280;45905;50.570;10.428;2023-10-08T02:18:21;98430.78;;;14.91
61977;BMP280;45905;50.570;10.428;2023-10-08T02:20:52;98428.56;;;14.88
61977;BMP280;45905;50.570;10.428;2023-10-08T02:23:20;98437.66;;;14.91
61977;BMP280;45905;50.570;10.428;2023-10-08T02:25:47;98440.81;;;14.93
61977;BMP280;45905;50.570;10.428;2023-10-08T02:28:15;98454.25;;;14.95
61977;BMP280;45905;50.570;10.428;2023-10-08T02:30:43;98457.44;;;14.97
61977;BMP280;45905;50.570;10.428;2023-10-08T02:33:10;98449.94;;;14.95
61977;BMP280;45905;50.570;10.428;2023-10-08T02:35:46;98460.25;;;15.02
61977;BMP280;45905;50.570;10.428;2023-10-08T02:38:17;98472.06;;;15.03
61977;BMP280;45905;50.570;10.428;2023-10-08T02:40:44;98466.00;;;15.04
61977;BMP280;45905;50.570;10.428;2023-10-08T02:43:16;98470.13;;;15.05
61977;BMP280;45905;50.570;10.428;2023-10-08T02:45:45;98469.94;;;15.06
61977;BMP280;45905;50.570;10.428;2023-10-08T02:48:17;98469.78;;;15.07
61977;BMP280;45905;50.570;10.428;2023-10-08T02:50:47;98461.78;;;15.10
61977;BMP280;45905;50.570;10.428;2023-10-08T02:53:14;98467.53;;;15.12
61977;BMP280;45905;50.570;10.428;2023-10-08T02:55:47;98467.16;;;15.15
61977;BMP280;45905;50.570;10.428;2023-10-08T02:58:16;98467.38;;;15.14
61977;BMP280;45905;50.570;10.428;2023-10-08T03:00:48;98477.03;;;15.18
61977;BMP280;45905;50.570;10.428;2023-10-08T03:03:17;98478.47;;;15.21
61977;BMP280;45905;50.570;10.428;2023-10-08T03:05:52;98488.94;;;15.26
61977;BMP280;45905;50.570;10.428;2023-10-08T03:08:24;98481.13;;;15.27
61977;BMP280;45905;50.570;10.428;2023-10-08T03:10:52;98470.22;;;15.33
61977;BMP280;45905;50.570;10.428;2023-10-08T03:13:24;98479.16;;;15.37
61977;BMP280;45905;50.570;10.428;2023-10-08T03:15:53;98469.84;;;15.44
61977;BMP280;45905;50.570;10.428;2023-10-08T03:18:30;98470.22;;;15.55
61977;BMP280;45905;50.570;10.428;2023-10-08T03:21:06;98469.53;;;15.61
61977;BMP280;45905;50.570;10.428;2023-10-08T03:23:51;98480.22;;;15.64
61977;BMP280;45905;50.570;10.428;2023-10-08T03:26:19;98484.63;;;15.70
61977;BMP280;45905;50.570;10.428;2023-10-08T03:29:06;98487.47;;;15.75
61977;BMP280;45905;50.570;10.428;2023-10-08T03:31:43;98483.56;;;15.79
61977;BMP280;45905;50.570;10.428;2023-10-08T03:34:22;98492.66;;;15.81
61977;BMP280;45905;50.570;10.428;2023-10-08T03:36:54;98491.69;;;15.82
61977;BMP280;45905;50.570;10.428;2023-10-08T03:39:32;98476.63;;;15.87
61977;BMP280;45905;50.570;10.428;2023-10-08T03:42:24;98469.06;;;15.93
61977;BMP280;45905;50.570;10.428;2023-10-08T03:44:53;98474.38;;;15.92
61977;BMP280;45905;50.570;10.428;2023-10-08T03:47:23;98479.91;;;15.95
61977;BMP280;45905;50.570;10.428;2023-10-08T03:49:53;98470.34;;;15.97
61977;BMP280;45905;50.570;10.428;2023-10-08T03:52:21;98465.84;;;15.99
61977;BMP280;45905;50.570;10.428;2023-10-08T03:54:51;98458.97;;;16.00
61977;BMP280;45905;50.570;10.428;2023-10-08T03:57:38;98453.69;;;16.01
61977;BMP280;45905;50.570;10.428;2023-10-08T04:00:14;98447.59;;;16.02
61977;BMP280;45905;50.570;10.428;2023-10-08T04:02:55;98454.91;;;16.05
61977;BMP280;45905;50.570;10.428;2023-10-08T04:05:27;98460.81;;;16.05
61977;BMP280;45905;50.570;10.428;2023-10-08T04:08:00;98437.47;;;16.08
61977;BMP280;45905;50.570;10.428;2023-10-08T04:10:35;98452.66;;;16.10
61977;BMP280;45905;50.570;10.428;2023-10-08T04:13:05;98437.31;;;16.10
61977;BMP280;45905;50.570;10.428;2023-10-08T04:15:39;98428.31;;;16.14
61977;BMP280;45905;50.570;10.428;2023-10-08T04:18:08;98427.00;;;16.18
61977;BMP280;45905;50.570;10.428;2023-10-08T04:20:36;98427.78;;;16.18
61977;BMP280;45905;50.570;10.428;2023-10-08T04:23:09;98425.03;;;16.20
61977;BMP280;45905;50.570;10.428;2023-10-08T04:25:45;98422.47;;;16.20
61977;BMP280;45905;50.570;10.428;2023-10-08T04:28:14;98424.06;;;16.21
61977;BMP280;45905;50.570;10.428;2023-10-08T04:30:44;98434.13;;;16.22
61977;BMP280;45905;50.570;10.428;2023-10-08T04:33:12;98443.56;;;16.22
61977;BMP280;45905;50.570;10.428;2023-10-08T04:35:42;98412.69;;;16.23
61977;BMP280;45905;50.570;10.428;2023-10-08T04:38:22;98406.19;;;16.21
61977;BMP280;45905;50.570;10.428;2023-10-08T04:40:52;98431.72;;;16.21
61977;BMP280;45905;50.570;10.428;2023-10-08T04:43:22;98413.84;;;16.21
61977;BMP280;45905;50.570;10.428;2023-10-08T04:45:56;98387.69;;;16.19
61977;BMP280;45905;50.570;10.428;2023-10-08T04:48:25;98364.69;;;16.19
61977;BMP280;45905;50.570;10.428;2023-10-08T04:50:55;98380.59;;;16.21
61977;BMP280;45905;50.570;10.428;2023-10-08T04:53:31;98390.03;;;16.20
61977;BMP280;45905;50.570;10.428;2023-10-08T04:56:01;98403.03;;;16.19
61977;BMP280;45905;50.570;10.428;2023-10-08T04:58:40;98400.47;;;16.19
61977;BMP280;45905;50.570;10.428;2023-10-08T05:01:08;98395.34;;;16.19
61977;BMP280;45905;50.570;10.428;2023-10-08T05:03:51;98411.66;;;16.18
61977;BMP280;45905;50.570;10.428;2023-10-08T05:06:41;98398.88;;;16.18
61977;BMP280;45905;50.570;10.428;2023-10-08T05:09:13;98412.63;;;16.17
61977;BMP280;45905;50.570;10.428;2023-10-08T05:11:48;98415.97;;;16.17
61977;BMP280;45905;50.570;10.428;2023-10-08T05:14:21;98439.94;;;16.16
61977;BMP280;45905;50.570;10.428;2023-10-08T05:17:08;98458.63;;;16.17
61977;BMP280;45905;50.570;10.428;2023-10-08T05:19:49;98427.16;;;16.16
61977;BMP280;45905;50.570;10.428;2023-10-08T05:22:37;98419.66;;;16.15
61977;BMP280;45905;50.570;10.428;2023-10-08T05:25:04;98450.34;;;16.15
61977;BMP280;45905;50.570;10.428;2023-10-08T05:27:53;98476.25;;;16.12
61977;BMP280;45905;50.570;10.428;2023-10-08T05:30:26;98491.31;;;16.07
61977;BMP280;45905;50.570;10.428;2023-10-08T05:33:20;98474.94;;;16.02
61977;BMP280;45905;50.570;10.428;2023-10-08T05:36:11;98463.34;;;15.91
61977;BMP280;45905;50.570;10.428;2023-10-08T05:38:45;98456.66;;;15.90
61977;BMP280;45905;50.570;10.428;2023-10-08T05:41:30;98488.09;;;15.91
61977;BMP280;45905;50.570;10.428;2023-10-08T05:44:18;98482.63;;;15.94
61977;BMP280;45905;50.570;10.428;2023-10-08T05:46:45;98462.97;;;15.94
61977;BMP280;45905;50.570;10.428;2023-10-08T05:49:22;98502.91;;;15.95
61977;BMP280;45905;50.570;10.428;2023-10-08T05:51:58;98496.81;;;15.96
61977;BMP280;45905;50.570;10.428;2023-10-08T05:54:26;98486.28;;;15.99
61977;BMP280;45905;50.570;10.428;2023-10-08T05:57:05;98482.78;;;16.00
61977;BMP280;45905;50.570;10.428;2023-10-08T05:59:33;98455.09;;;16.03
61977;BMP280;45905;50.570;10.428;2023-10-08T06:02:06;98452.03;;;16.08
61977;BMP280;45905;50.570;10.428;2023-10-08T06:04:58;98437.09;;;16.11
61977;BMP280;45905;50.570;10.428;2023-10-08T06:10:36;98432.28;;;16.16
61977;BMP280;45905;50.570;10.428;2023-10-08T06:13:14;98451.59;;;16.19
61977;BMP280;45905;50.570;10.428;2023-10-08T06:15:49;98464.97;;;16.21
61977;BMP280;45905;50.570;10.428;2023-10-08T06:18:33;98469.47;;;16.19
61977;BMP280;45905;50.570;10.428;2023-10-08T06:21:06;98478.91;;;16.18
61977;BMP280;45905;50.570;10.428;2023-10-08T06:23:41;98485.97;;;16.16
61977;BMP280;45905;50.570;10.428;2023-10-08T06:26:09;98498.13;;;16.14
61977;BMP280;45905;50.570;10.428;2023-10-08T06:28:38;98499.06;;;16.13
61977;BMP280;45905;50.570;10.428;2023-10-08T06:31:06;98513.44;;;16.14
61977;BMP280;45905;50.570;10.428;2023-10-08T06:33:40;98523.50;;;16.16
61977;BMP280;45905;50.570;10.428;2023-10-08T06:36:10;98529.41;;;16.16
61977;BMP280;45905;50.570;10.428;2023-10-08T06:38:43;98532.59;;;16.18
61977;BMP280;45905;50.570;10.428;2023-10-08T06:41:12;98545.81;;;16.22
61977;BMP280;45905;50.570;10.428;2023-10-08T06:43:42;98542.91;;;16.24
61977;BMP280;45905;50.570;10.428;2023-10-08T06:46:32;98546.69;;;16.28
61977;BMP280;45905;50.570;10.428;2023-10-08T06:49:02;98546.97;;;16.33
61977;BMP280;45905;50.570;10.428;2023-10-08T06:51:31;98554.09;;;16.38
61977;BMP280;45905;50.570;10.428;2023-10-08T06:54:00;98549.44;;;16.41
61977;BMP280;45905;50.570;10.428;2023-10-08T06:56:30;98558.97;;;16.47
61977;BMP280;45905;50.570;10.428;2023-10-08T06:59:00;98564.53;;;16.50
61977;BMP280;45905;50.570;10.428;2023-10-08T07:01:29;98566.91;;;16.52
61977;BMP280;45905;50.570;10.428;2023-10-08T07:04:06;98562.22;;;16.55
61977;BMP280;45905;50.570;10.428;2023-10-08T07:06:41;98579.63;;;16.60
61977;BMP280;45905;50.570;10.428;2023-10-08T07:09:11;98585.19;;;16.63
61977;BMP280;45905;50.570;10.428;2023-10-08T07:11:57;98593.09;;;16.68
61977;BMP280;45905;50.570;10.428;2023-10-08T07:14:27;98597.09;;;16.70
61977;BMP280;45905;50.570;10.428;2023-10-08T07:17:00;98601.84;;;16.73
61977;BMP280;45905;50.570;10.428;2023-10-08T07:19:30;98571.94;;;16.74
61977;BMP280;45905;50.570;10.428;2023-10-08T07:22:07;98548.22;;;16.80
61977;BMP280;45905;50.570;10.428;2023-10-08T07:24:56;98525.34;;;16.78
61977;BMP280;45905;50.570;10.428;2023-10-08T07:27:25;98522.41;;;16.81
61977;BMP280;45905;50.570;10.428;2023-10-08T07:29:59;98524.00;;;16.82
61977;BMP280;45905;50.570;10.428;2023-10-08T07:32:30;98523.22;;;16.81
61977;BMP280;45905;50.570;10.428;2023-10-08T07:34:58;98526.56;;;16.82
61977;BMP280;45905;50.570;10.428;2023-10-08T07:37:42;98543.69;;;16.81
61977;BMP280;45905;50.570;10.428;2023-10-08T07:40:13;98536.22;;;16.80
61977;BMP280;45905;50.570;10.428;2023-10-08T07:42:41;98531.09;;;16.80
61977;BMP280;45905;50.570;10.428;2023-10-08T07:45:08;98531.09;;;16.80
61977;BMP280;45905;50.570;10.428;2023-10-08T07:47:36;98531.88;;;16.80
61977;BMP280;45905;50.570;10.428;2023-10-08T07:50:04;98540.72;;;16.78
61977;BMP280;45905;50.570;10.428;2023-10-08T07:52:39;98543.88;;;16.80
61977;BMP280;45905;50.570;10.428;2023-10-08T07:55:11;98542.88;;;16.81
61977;BMP280;45905;50.570;10.428;2023-10-08T07:57:45;98549.81;;;16.80
61977;BMP280;45905;50.570;10.428;2023-10-08T08:00:13;98546.44;;;16.80
61977;BMP280;45905;50.570;10.428;2023-10-08T08:02:52;98560.22;;;16.79
61977;BMP280;45905;50.570;10.428;2023-10-08T08:05:22;98565.31;;;16.79
61977;BMP280;45905;50.570;10.428;2023-10-08T08:07:50;98579.72;;;16.80
61977;BMP280;45905;50.570;10.428;2023-10-08T08:10:17;98590.13;;;16.79
61977;BMP280;45905;50.570;10.428;2023-10-08T08:12:45;98609.00;;;16.78
61977;BMP280;45905;50.570;10.428;2023-10-08T08:15:13;98606.59;;;16.76
61977;BMP280;45905;50.570;10.428;2023-10-08T08:17:44;98611.09;;;16.74
61977;BMP280;45905;50.570;10.428;2023-10-08T08:20:11;98624.88;;;16.73
61977;BMP280;45905;50.570;10.428;2023-10-08T08:22:45;98619.16;;;16.71
61977;BMP280;45905;50.570;10.428;2023-10-08T08:25:22;98621.50;;;16.73
61977;BMP280;45905;50.570;10.428;2023-10-08T08:28:01;98615.59;;;16.72
61977;BMP280;45905;50.570;10.428;2023-10-08T08:30:33;98624.59;;;16.68
61977;BMP280;45905;50.570;10.428;2023-10-08T08:33:04;98635.34;;;16.64
61977;BMP280;45905;50.570;10.428;2023-10-08T08:35:38;98642.44;;;16.62
61977;BMP280;45905;50.570;10.428;2023-10-08T08:38:05;98660.03;;;16.57
61977;BMP280;45905;50.570;10.428;2023-10-08T08:40:36;98675.94;;;16.53
61977;BMP280;45905;50.570;10.428;2023-10-08T08:43:05;98684.28;;;16.47
61977;BMP280;45905;50.570;10.428;2023-10-08T08:45:35;98690.25;;;16.40
61977;BMP280;45905;50.570;10.428;2023-10-08T08:48:03;98698.78;;;16.32
61977;BMP280;45905;50.570;10.428;2023-10-08T08:50:33;98698.38;;;16.21
61977;BMP280;45905;50.570;10.428;2023-10-08T08:53:01;98694.81;;;16.08
61977;BMP280;45905;50.570;10.428;2023-10-08T08:55:33;98697.44;;;16.00
61977;BMP280;45905;50.570;10.428;2023-10-08T08:58:03;98692.00;;;15.95
61977;BMP280;45905;50.570;10.428;2023-10-08T09:00:32;98684.22;;;15.89
61977;BMP280;45905;50.570;10.428;2023-10-08T09:03:00;98692.72;;;15.82
61977;BMP280;45905;50.570;10.428;2023-10-08T09:05:32;98710.66;;;15.74
61977;BMP280;45905;50.570;10.428;2023-10-08T09:08:06;98728.22;;;15.69
61977;BMP280;45905;50.570;10.428;2023-10-08T09:10:37;98727.59;;;15.67
61977;BMP280;45905;50.570;10.428;2023-10-08T09:13:07;98723.81;;;15.63
61977;BMP280;45905;50.570;10.428;2023-10-08T09:15:36;98715.50;;;15.61
61977;BMP280;45905;50.570;10.428;2023-10-08T09:18:04;98732.75;;;15.59
61977;BMP280;45905;50.570;10.428;2023-10-08T09:20:37;98741.38;;;15.58
61977;BMP280;45905;50.570;10.428;2023-10-08T09:23:15;98736.28;;;15.50
61977;BMP280;45905;50.570;10.428;2023-10-08T09:25:49;98739.81;;;15.49
61977;BMP280;45905;50.570;10.428;2023-10-08T09:28:18;98741.59;;;15.49
61977;BMP280;45905;50.570;10.428;2023-10-08T09:30:45;98730.41;;;15.42
61977;BMP280;45905;50.570;10.428;2023-10-08T09:33:15;98741.31;;;15.36
61977;BMP280;45905;50.570;10.428;2023-10-08T09:35:46;98746.72;;;15.33
61977;BMP280;45905;50.570;10.428;2023-10-08T09:38:15;98746.59;;;15.27
61977;BMP280;45905;50.570;10.428;2023-10-08T09:40:52;98747.88;;;15.23
61977;BMP280;45905;50.570;10.428;2023-10-08T09:43:22;98748.22;;;15.20
61977;BMP280;45905;50.570;10.428;2023-10-08T09:46:15;98756.03;;;15.19
61977;BMP280;45905;50.570;10.428;2023-10-08T09:48:51;98762.41;;;15.15
61977;BMP280;45905;50.570;10.428;2023-10-08T09:51:23;98762.91;;;15.10
61977;BMP280;45905;50.570;10.428;2023-10-08T09:56:29;98764.53;;;15.04
61977;BMP280;45905;50.570;10.428;2023-10-08T09:58:59;98758.94;;;15.00
61977;BMP280;45905;50.570;10.428;2023-10-08T10:01:28;98755.28;;;14.95
61977;BMP280;45905;50.570;10.428;2023-10-08T10:03:55;98751.44;;;14.91
61977;BMP280;45905;50.570;10.428;2023-10-08T10:06:28;98756.53;;;14.83
61977;BMP280;45905;50.570;10.428;2023-10-08T10:08:56;98758.16;;;14.76
61977;BMP280;45905;50.570;10.428;2023-10-08T10:11:30;98780.47;;;14.74
61977;BMP280;45905;50.570;10.428;2023-10-08T10:14:03;98794.50;;;14.78
61977;BMP280;45905;50.570;10.428;2023-10-08T10:16:36;98814.25;;;14.84
61977;BMP280;45905;50.570;10.428;2023-10-08T10:19:05;98835.31;;;14.86
61977;BMP280;45905;50.570;10.428;2023-10-08T10:21:33;98835.63;;;14.83
61977;BMP280;45905;50.570;10.428;2023-10-08T10:24:01;98849.03;;;14.77
61977;BMP280;45905;50.570;10.428;2023-10-08T10:26:36;98853.94;;;14.71
61977;BMP280;45905;50.570;10.428;2023-10-08T10:31:38;98864.63;;;14.59
61977;BMP280;45905;50.570;10.428;2023-10-08T10:34:08;98868.41;;;14.55
61977;BMP280;45905;50.570;10.428;2023-10-08T10:36:38;98873.66;;;14.53
61977;BMP280;45905;50.570;10.428;2023-10-08T10:39:07;98882.31;;;14.52
61977;BMP280;45905;50.570;10.428;2023-10-08T10:41:47;98890.75;;;14.53
61977;BMP280;45905;50.570;10.428;2023-10-08T10:44:16;98875.28;;;14.54
61977;BMP280;45905;50.570;10.428;2023-10-08T10:46:46;98883.09;;;14.53
61977;BMP280;45905;50.570;10.428;2023-10-08T10:49:40;98876.38;;;14.44
61977;BMP280;45905;50.570;10.428;2023-10-08T10:52:27;98901.09;;;14.44
61977;BMP280;45905;50.570;10.428;2023-10-08T10:55:20;98899.94;;;14.46
61977;BMP280;45905;50.570;10.428;2023-10-08T10:57:55;98906.97;;;14.44
61977;BMP280;45905;50.570;10.428;2023-10-08T11:00:25;98924.81;;;14.44
61977;BMP280;45905;50.570;10.428;2023-10-08T11:03:04;98922.59;;;14.41
61977;BMP280;45905;50.570;10.428;2023-10-08T11:05:51;98899.78;;;14.40
61977;BMP280;45905;50.570;10.428;2023-10-08T11:08:22;98879.53;;;14.38
61977;BMP280;45905;50.570;10.428;2023-10-08T11:10:52;98852.00;;;14.42
61977;BMP280;45905;50.570;10.428;2023-10-08T11:13:24;98827.59;;;14.39
61977;BMP280;45905;50.570;10.428;2023-10-08T11:15:56;98832.41;;;14.42
61977;BMP280;45905;50.570;10.428;2023-10-08T11:18:27;98812.66;;;14.44
61977;BMP280;45905;50.570;10.428;2023-10-08T11:21:09;98819.81;;;14.49
61977;BMP280;45905;50.570;10.428;2023-10-08T11:23:57;98849.94;;;14.53
61977;BMP280;45905;50.570;10.428;2023-10-08T11:26:35;98859.03;;;14.55
61977;BMP280;45905;50.570;10.428;2023-10-08T11:29:06;98856.47;;;14.55
61977;BMP280;45905;50.570;10.428;2023-10-08T11:31:42;98863.31;;;14.55
61977;BMP280;45905;50.570;10.428;2023-10-08T11:34:11;98868.75;;;14.52
61977;BMP280;45905;50.570;10.428;2023-10-08T11:36:41;98878.16;;;14.51
61977;BMP280;45905;50.570;10.428;2023-10-08T11:39:21;98869.69;;;14.43
61977;BMP280;45905;50.570;10.428;2023-10-08T11:42:02;98877.00;;;14.38
61977;BMP280;45905;50.570;10.428;2023-10-08T11:44:32;98873.50;;;14.39
61977;BMP280;45905;50.570;10.428;2023-10-08T11:47:05;98875.41;;;14.37
61977;BMP280;45905;50.570;10.428;2023-10-08T11:49:40;98876.81;;;14.32
61977;BMP280;45905;50.570;10.428;2023-10-08T11:52:15;98877.91;;;14.30
61977;BMP280;45905;50.570;10.428;2023-10-08T11:54:44;98871.56;;;14.26
61977;BMP280;45905;50.570;10.428;2023-10-08T11:57:11;98880.28;;;14.15
61977;BMP280;45905;50.570;10.428;2023-10-08T11:59:38;98875.97;;;14.16
61977;BMP280;45905;50.570;10.428;2023-10-08T12:02:06;98872.47;;;14.17
61977;BMP280;45905;50.570;10.428;2023-10-08T12:04:34;98858.78;;;14.18
61977;BMP280;45905;50.570;10.428;2023-10-08T12:07:03;98866.75;;;14.23
61977;BMP280;45905;50.570;10.428;2023-10-08T12:09:34;98875.53;;;14.28
61977;BMP280;45905;50.570;10.428;2023-10-08T12:12:05;98873.63;;;14.30
61977;BMP280;45905;50.570;10.428;2023-10-08T12:14:36;98867.72;;;14.30
61977;BMP280;45905;50.570;10.428;2023-10-08T12:17:05;98868.81;;;14.27
61977;BMP280;45905;50.570;10.428;2023-10-08T12:19:38;98868.34;;;14.24
61977;BMP280;45905;50.570;10.428;2023-10-08T12:22:10;98873.94;;;14.27
61977;BMP280;45905;50.570;10.428;2023-10-08T12:24:42;98871.88;;;14.31
61977;BMP280;45905;50.570;10.428;2023-10-08T12:27:09;98886.72;;;14.35
61977;BMP280;45905;50.570;10.428;2023-10-08T12:29:39;98876.69;;;14.33
61977;BMP280;45905;50.570;10.428;2023-10-08T12:32:07;98856.72;;;14.29
61977;BMP280;45905;50.570;10.428;2023-10-08T12:34:44;98873.31;;;14.33
61977;BMP280;45905;50.570;10.428;2023-10-08T12:37:12;98863.94;;;14.33
61977;BMP280;45905;50.570;10.428;2023-10-08T12:39:42;98856.13;;;14.35
61977;BMP280;45905;50.570;10.428;2023-10-08T12:42:27;98854.84;;;14.39
61977;BMP280;45905;50.570;10.428;2023-10-08T12:44:54;98850.69;;;14.38
61977;BMP280;45905;50.570;10.428;2023-10-08T12:47:24;98843.06;;;14.38
61977;BMP280;45905;50.570;10.428;2023-10-08T12:49:56;98843.56;;;14.41
61977;BMP280;45905;50.570;10.428;2023-10-08T12:52:27;98837.94;;;14.38
61977;BMP280;45905;50.570;10.428;2023-10-08T12:54:55;98835.09;;;14.41
61977;BMP280;45905;50.570;10.428;2023-10-08T12:57:25;98831.75;;;14.48
61977;BMP280;45905;50.570;10.428;2023-10-08T13:00:00;98827.16;;;14.51
61977;BMP280;45905;50.570;10.428;2023-10-08T13:02:30;98832.72;;;14.55
61977;BMP280;45905;50.570;10.428;2023-10-08T13:04:57;98822.22;;;14.58
61977;BMP280;45905;50.570;10.428;2023-10-08T13:07:26;98830.97;;;14.63
61977;BMP280;45905;50.570;10.428;2023-10-08T13:09:53;98840.72;;;14.68
61977;BMP280;45905;50.570;10.428;2023-10-08T13:12:21;98836.28;;;14.69
61977;BMP280;45905;50.570;10.428;2023-10-08T13:14:48;98842.31;;;14.76
61977;BMP280;45905;50.570;10.428;2023-10-08T13:17:16;98845.03;;;14.83
61977;BMP280;45905;50.570;10.428;2023-10-08T13:19:45;98836.91;;;14.87
61977;BMP280;45905;50.570;10.428;2023-10-08T13:22:12;98843.13;;;14.92
61977;BMP280;45905;50.570;10.428;2023-10-08T13:24:46;98828.50;;;14.94
61977;BMP280;45905;50.570;10.428;2023-10-08T13:27:16;98833.91;;;14.99
61977;BMP280;45905;50.570;10.428;2023-10-08T13:29:43;98836.94;;;15.03
61977;BMP280;45905;50.570;10.428;2023-10-08T13:32:10;98840.13;;;15.05
61977;BMP280;45905;50.570;10.428;2023-10-08T13:34:44;98825.44;;;15.07
61977;BMP280;45905;50.570;10.428;2023-10-08T13:37:13;98814.41;;;15.06
61977;BMP280;45905;50.570;10.428;2023-10-08T13:39:42;98812.19;;;15.11
61977;BMP280;45905;50.570;10.428;2023-10-08T13:42:09;98804.69;;;15.09
61977;BMP280;45905;50.570;10.428;2023-10-08T13:44:43;98812.34;;;15.09
61977;BMP280;45905;50.570;10.428;2023-10-08T13:47:12;98810.28;;;15.13
61977;BMP280;45905;50.570;10.428;2023-10-08T13:49:42;98808.34;;;15.15
61977;BMP280;45905;50.570;10.428;2023-10-08T13:52:10;98806.00;;;15.13
61977;BMP280;45905;50.570;10.428;2023-10-08T13:54:37;98820.63;;;15.19
61977;BMP280;45905;50.570;10.428;2023-10-08T13:57:09;98816.97;;;15.22
61977;BMP280;45905;50.570;10.428;2023-10-08T13:59:41;98816.34;;;15.20
61977;BMP280;45905;50.570;10.428;2023-10-08T14:02:09;98806.44;;;15.17
61977;BMP280;45905;50.570;10.428;2023-10-08T14:04:43;98803.25;;;15.15
61977;BMP280;45905;50.570;10.428;2023-10-08T14:07:12;98804.84;;;15.08
61977;BMP280;45905;50.570;10.428;2023-10-08T14:09:44;98799.91;;;15.07
61977;BMP280;45905;50.570;10.428;2023-10-08T14:12:13;98794.50;;;15.09
61977;BMP280;45905;50.570;10.428;2023-10-08T14:14:41;98800.25;;;15.11
61977;BMP280;45905;50.570;10.428;2023-10-08T14:17:11;98794.97;;;15.13
61977;BMP280;45905;50.570;10.428;2023-10-08T14:19:43;98782.53;;;15.10
61977;BMP280;45905;50.570;10.428;2023-10-08T14:22:26;98786.69;;;15.11
61977;BMP280;45905;50.570;10.428;2023-10-08T14:24:54;98781.44;;;15.05
61977;BMP280;45905;50.570;10.428;2023-10-08T14:27:27;98784.16;;;15.03
61977;BMP280;45905;50.570;10.428;2023-10-08T14:30:10;98789.25;;;15.03
61977;BMP280;45905;50.570;10.428;2023-10-08T14:32:48;98786.34;;;15.06
61977;BMP280;45905;50.570;10.428;2023-10-08T14:35:15;98788.75;;;15.07